sensor_id;sensor_type;location;lat;lon;timestamp;P1;durP1;ratioP1;P2;durP2;ratioP2
3131;SDS011;62090;52.330;9.104;2023-01-15T00:02:29;1.63;;;1.10;;
3131;SDS011;62090;52.330;9.104;2023-01-15T00:05:00;6.50;;;1.90;;
3131;SDS011;62090;52.330;9.104;2023-01-15T00:07:30;4.03;;;1.10;;
3131;SDS011;62090;52.330;9.104;2023-01-15T00:09:59;3.67;;;1.50;;
3131;SDS011;62090;52.330;9.104;2023-01-15T00:12:29;6.93;;;1.30;;
3131;SDS011;62090;52.330;9.104;2023-01-15T00:14:59;9.90;;;1.90;;
3131;SDS011;62090;52.330;9.104;2023-01-15T00:17:32;6.57;;;1.53;;
3131;SDS011;62090;52.330;9.104;2023-01-15T00:20:02;11.20;;;1.53;;
3131;SDS011;62090;52.330;9.104;2023-01-15T00:22:32;6.50;;;0.93;;
3131;SDS011;62090;52.330;9.104;2023-01-15T00:25:01;2.90;;;1.30;;
3131;SDS011;62090;52.330;9.104;2023-01-15T00:27:44;7.27;;;1.23;;
3131;SDS011;62090;52.330;9.104;2023-01-15T00:30:15;4.93;;;1.17;;
3131;SDS011;62090;52.330;9.104;2023-01-15T00:32:48;4.33;;;1.30;;
3131;SDS011;62090;52.330;9.104;2023-01-15T00:35:21;3.30;;;1.03;;
3131;SDS011;62090;52.330;9.104;2023-01-15T00:37:52;7.40;;;1.27;;
3131;SDS011;62090;52.330;9.104;2023-01-15T00:40:22;7.97;;;1.07;;
3131;SDS011;62090;52.330;9.104;2023-01-15T00:42:52;1.50;;;0.80;;
3131;SDS011;62090;52.330;9.104;2023-01-15T00:45:21;3.90;;;1.10;;
3131;SDS011;62090;52.330;9.104;2023-01-15T00:47:54;1.57;;;0.87;;
3131;SDS011;62090;52.330;9.104;2023-01-15T00:50:25;6.83;;;1.40;;
3131;SDS011;62090;52.330;9.104;2023-01-15T00:52:55;2.73;;;0.80;;
3131;SDS011;62090;52.330;9.104;2023-01-15T00:55:24;5.33;;;0.90;;
3131;SDS011;62090;52.330;9.104;2023-01-15T00:57:54;2.87;;;1.07;;
3131;SDS011;62090;52.330;9.104;2023-01-15T01:00:24;2.10;;;0.70;;
3131;SDS011;62090;52.330;9.104;2023-01-15T01:02:57;8.93;;;1.20;;
3131;SDS011;62090;52.330;9.104;2023-01-15T01:05:27;2.97;;;0.80;;
3131;SDS011;62090;52.330;9.104;2023-01-15T01:07:58;3.03;;;0.83;;
3131;SDS011;62090;52.330;9.104;2023-01-15T01:10:28;4.00;;;0.90;;
3131;SDS011;62090;52.330;9.104;2023-01-15T01:12:57;2.93;;;1.10;;
3131;SDS011;62090;52.330;9.104;2023-01-15T01:15:27;2.13;;;0.80;;
3131;SDS011;62090;52.330;9.104;2023-01-15T01:17:59;2.17;;;0.90;;
3131;SDS011;62090;52.330;9.104;2023-01-15T01:20:29;1.83;;;0.90;;
3131;SDS011;62090;52.330;9.104;2023-01-15T01:22:59;1.27;;;0.80;;
3131;SDS011;62090;52.330;9.104;2023-01-15T01:25:29;3.07;;;1.03;;
3131;SDS011;62090;52.330;9.104;2023-01-15T01:27:58;3.37;;;1.30;;
3131;SDS011;62090;52.330;9.104;2023-01-15T01:30:28;1.50;;;0.67;;
3131;SDS011;62090;52.330;9.104;2023-01-15T01:33:00;2.63;;;0.87;;
3131;SDS011;62090;52.330;9.104;2023-01-15T01:35:30;2.30;;;0.70;;
3131;SDS011;62090;52.330;9.104;2023-01-15T01:38:00;2.00;;;1.00;;
3131;SDS011;62090;52.330;9.104;2023-01-15T01:40:30;4.60;;;1.13;;
3131;SDS011;62090;52.330;9.104;2023-01-15T01:42:59;3.10;;;0.70;;
3131;SDS011;62090;52.330;9.104;2023-01-15T01:45:30;4.07;;;1.03;;
3131;SDS011;62090;52.330;9.104;2023-01-15T01:48:04;3.27;;;0.77;;
3131;SDS011;62090;52.330;9.104;2023-01-15T01:50:35;3.00;;;0.70;;
3131;SDS011;62090;52.330;9.104;2023-01-15T01:53:08;4.33;;;0.90;;
3131;SDS011;62090;52.330;9.104;2023-01-15T01:55:42;2.53;;;0.73;;
3131;SDS011;62090;52.330;9.104;2023-01-15T01:58:12;3.30;;;0.70;;
3131;SDS011;62090;52.330;9.104;2023-01-15T02:00:44;2.20;;;0.60;;
3131;SDS011;62090;52.330;9.104;2023-01-15T02:03:20;1.57;;;0.70;;
3131;SDS011;62090;52.330;9.104;2023-01-15T02:05:54;3.37;;;1.20;;
3131;SDS011;62090;52.330;9.104;2023-01-15T02:08:26;4.40;;;0.93;;
3131;SDS011;62090;52.330;9.104;2023-01-15T02:10:58;5.80;;;0.80;;
3131;SDS011;62090;52.330;9.104;2023-01-15T02:13:34;1.37;;;0.70;;
3131;SDS011;62090;52.330;9.104;2023-01-15T02:16:07;4.03;;;0.80;;
3131;SDS011;62090;52.330;9.104;2023-01-15T02:18:47;3.17;;;0.80;;
3131;SDS011;62090;52.330;9.104;2023-01-15T02:21:29;1.57;;;0.60;;
3131;SDS011;62090;52.330;9.104;2023-01-15T02:24:11;3.13;;;0.70;;
3131;SDS011;62090;52.330;9.104;2023-01-15T02:26:53;2.67;;;0.80;;
3131;SDS011;62090;52.330;9.104;2023-01-15T02:29:33;4.80;;;1.00;;
3131;SDS011;62090;52.330;9.104;2023-01-15T02:32:24;2.40;;;0.70;;
3131;SDS011;62090;52.330;9.104;2023-01-15T02:35:01;1.67;;;0.60;;
3131;SDS011;62090;52.330;9.104;2023-01-15T02:37:36;2.07;;;0.70;;
3131;SDS011;62090;52.330;9.104;2023-01-15T02:40:10;2.33;;;0.70;;
3131;SDS011;62090;52.330;9.104;2023-01-15T02:42:44;5.80;;;0.70;;
3131;SDS011;62090;52.330;9.104;2023-01-15T02:45:19;2.10;;;0.83;;
3131;SDS011;62090;52.330;9.104;2023-01-15T02:47:56;2.40;;;1.00;;
3131;SDS011;62090;52.330;9.104;2023-01-15T02:50:34;4.97;;;0.90;;
3131;SDS011;62090;52.330;9.104;2023-01-15T02:53:09;1.20;;;0.70;;
3131;SDS011;62090;52.330;9.104;2023-01-15T02:55:43;6.33;;;1.00;;
3131;SDS011;62090;52.330;9.104;2023-01-15T02:58:23;3.07;;;1.03;;
3131;SDS011;62090;52.330;9.104;2023-01-15T03:01:03;7.57;;;1.13;;
3131;SDS011;62090;52.330;9.104;2023-01-15T03:03:39;1.93;;;0.73;;
3131;SDS011;62090;52.330;9.104;2023-01-15T03:06:16;3.30;;;0.90;;
3131;SDS011;62090;52.330;9.104;2023-01-15T03:08:50;2.17;;;0.70;;
3131;SDS011;62090;52.330;9.104;2023-01-15T03:11:20;3.73;;;1.00;;
3131;SDS011;62090;52.330;9.104;2023-01-15T03:14:01;8.13;;;0.90;;
3131;SDS011;62090;52.330;9.104;2023-01-15T03:16:36;2.00;;;0.87;;
3131;SDS011;62090;52.330;9.104;2023-01-15T03:19:14;2.70;;;0.87;;
3131;SDS011;62090;52.330;9.104;2023-01-15T03:21:55;1.80;;;1.00;;
3131;SDS011;62090;52.330;9.104;2023-01-15T03:24:29;3.83;;;1.27;;
3131;SDS011;62090;52.330;9.104;2023-01-15T03:27:02;1.70;;;0.70;;
3131;SDS011;62090;52.330;9.104;2023-01-15T03:29:36;3.37;;;1.00;;
3131;SDS011;62090;52.330;9.104;2023-01-15T03:32:07;2.73;;;0.90;;
3131;SDS011;62090;52.330;9.104;2023-01-15T03:34:39;4.77;;;1.00;;
3131;SDS011;62090;52.330;9.104;2023-01-15T03:37:16;3.63;;;1.00;;
3131;SDS011;62090;52.330;9.104;2023-01-15T03:39:47;3.67;;;1.10;;
3131;SDS011;62090;52.330;9.104;2023-01-15T03:42:32;4.07;;;1.37;;
3131;SDS011;62090;52.330;9.104;2023-01-15T03:45:16;2.20;;;1.00;;
3131;SDS011;62090;52.330;9.104;2023-01-15T03:47:53;3.53;;;0.97;;
3131;SDS011;62090;52.330;9.104;2023-01-15T03:50:31;4.00;;;1.07;;
3131;SDS011;62090;52.330;9.104;2023-01-15T03:53:13;2.53;;;1.07;;
3131;SDS011;62090;52.330;9.104;2023-01-15T03:55:52;4.40;;;1.00;;
3131;SDS011;62090;52.330;9.104;2023-01-15T03:58:28;6.67;;;1.07;;
3131;SDS011;62090;52.330;9.104;2023-01-15T04:01:10;3.00;;;1.10;;
3131;SDS011;62090;52.330;9.104;2023-01-15T04:03:43;5.60;;;1.50;;
3131;SDS011;62090;52.330;9.104;2023-01-15T04:06:20;4.53;;;1.20;;
3131;SDS011;62090;52.330;9.104;2023-01-15T04:08:52;5.80;;;1.50;;
3131;SDS011;62090;52.330;9.104;2023-01-15T04:11:24;4.47;;;1.03;;
3131;SDS011;62090;52.330;9.104;2023-01-15T04:14:01;2.23;;;1.23;;
3131;SDS011;62090;52.330;9.104;2023-01-15T04:16:43;3.33;;;1.63;;
3131;SDS011;62090;52.330;9.104;2023-01-15T04:19:12;5.10;;;1.40;;
3131;SDS011;62090;52.330;9.104;2023-01-15T04:21:57;5.97;;;1.80;;
3131;SDS011;62090;52.330;9.104;2023-01-15T04:24:27;2.47;;;0.93;;
3131;SDS011;62090;52.330;9.104;2023-01-15T04:26:56;3.17;;;1.70;;
3131;SDS011;62090;52.330;9.104;2023-01-15T04:29:26;4.00;;;1.70;;
3131;SDS011;62090;52.330;9.104;2023-01-15T04:31:58;10.03;;;1.67;;
3131;SDS011;62090;52.330;9.104;2023-01-15T04:34:28;2.50;;;1.40;;
3131;SDS011;62090;52.330;9.104;2023-01-15T04:37:00;5.97;;;1.40;;
3131;SDS011;62090;52.330;9.104;2023-01-15T04:39:30;4.83;;;1.20;;
3131;SDS011;62090;52.330;9.104;2023-01-15T04:42:00;2.10;;;1.30;;
3131;SDS011;62090;52.330;9.104;2023-01-15T04:44:42;6.73;;;1.97;;
3131;SDS011;62090;52.330;9.104;2023-01-15T04:47:14;6.07;;;1.40;;
3131;SDS011;62090;52.330;9.104;2023-01-15T04:49:44;6.67;;;1.83;;
3131;SDS011;62090;52.330;9.104;2023-01-15T04:52:14;5.10;;;1.63;;
3131;SDS011;62090;52.330;9.104;2023-01-15T04:54:44;6.33;;;1.73;;
3131;SDS011;62090;52.330;9.104;2023-01-15T04:57:13;6.50;;;1.70;;
3131;SDS011;62090;52.330;9.104;2023-01-15T04:59:43;9.67;;;1.70;;
3131;SDS011;62090;52.330;9.104;2023-01-15T05:02:15;3.33;;;1.43;;
3131;SDS011;62090;52.330;9.104;2023-01-15T05:04:45;6.30;;;1.50;;
3131;SDS011;62090;52.330;9.104;2023-01-15T05:07:16;7.37;;;1.30;;
3131;SDS011;62090;52.330;9.104;2023-01-15T05:09:45;5.60;;;1.50;;
3131;SDS011;62090;52.330;9.104;2023-01-15T05:12:18;6.53;;;1.73;;
3131;SDS011;62090;52.330;9.104;2023-01-15T05:14:47;2.73;;;1.20;;
3131;SDS011;62090;52.330;9.104;2023-01-15T05:17:20;7.30;;;1.20;;
3131;SDS011;62090;52.330;9.104;2023-01-15T05:19:49;9.10;;;2.53;;
3131;SDS011;62090;52.330;9.104;2023-01-15T05:22:19;8.80;;;2.03;;
3131;SDS011;62090;52.330;9.104;2023-01-15T05:24:49;8.93;;;2.57;;
3131;SDS011;62090;52.330;9.104;2023-01-15T05:27:18;7.67;;;1.40;;
3131;SDS011;62090;52.330;9.104;2023-01-15T05:29:48;9.87;;;2.10;;
3131;SDS011;62090;52.330;9.104;2023-01-15T05:32:20;8.23;;;2.23;;
3131;SDS011;62090;52.330;9.104;2023-01-15T05:34:50;5.57;;;2.00;;
3131;SDS011;62090;52.330;9.104;2023-01-15T05:37:20;9.37;;;1.60;;
3131;SDS011;62090;52.330;9.104;2023-01-15T05:39:49;4.57;;;1.50;;
3131;SDS011;62090;52.330;9.104;2023-01-15T05:42:19;7.47;;;2.13;;
3131;SDS011;62090;52.330;9.104;2023-01-15T05:44:49;13.30;;;1.83;;
3131;SDS011;62090;52.330;9.104;2023-01-15T05:47:21;7.00;;;2.50;;
3131;SDS011;62090;52.330;9.104;2023-01-15T05:49:51;8.40;;;1.77;;
3131;SDS011;62090;52.330;9.104;2023-01-15T05:52:20;13.00;;;2.20;;
3131;SDS011;62090;52.330;9.104;2023-01-15T05:54:50;8.03;;;1.60;;
3131;SDS011;62090;52.330;9.104;2023-01-15T05:57:20;8.20;;;1.57;;
3131;SDS011;62090;52.330;9.104;2023-01-15T05:59:50;9.13;;;1.77;;
3131;SDS011;62090;52.330;9.104;2023-01-15T06:02:23;5.93;;;1.80;;
3131;SDS011;62090;52.330;9.104;2023-01-15T06:04:53;9.53;;;2.33;;
3131;SDS011;62090;52.330;9.104;2023-01-15T06:07:23;10.57;;;2.27;;
3131;SDS011;62090;52.330;9.104;2023-01-15T06:09:52;12.27;;;3.87;;
3131;SDS011;62090;52.330;9.104;2023-01-15T06:12:22;8.73;;;1.80;;
3131;SDS011;62090;52.330;9.104;2023-01-15T06:14:52;5.60;;;1.47;;
3131;SDS011;62090;52.330;9.104;2023-01-15T06:17:24;6.80;;;1.90;;
3131;SDS011;62090;52.330;9.104;2023-01-15T06:19:54;9.17;;;1.83;;
3131;SDS011;62090;52.330;9.104;2023-01-15T06:22:23;7.87;;;1.60;;
3131;SDS011;62090;52.330;9.104;2023-01-15T06:24:53;11.50;;;2.20;;
3131;SDS011;62090;52.330;9.104;2023-01-15T06:27:23;10.30;;;1.83;;
3131;SDS011;62090;52.330;9.104;2023-01-15T06:29:52;12.40;;;2.40;;
3131;SDS011;62090;52.330;9.104;2023-01-15T06:32:27;5.10;;;1.57;;
3131;SDS011;62090;52.330;9.104;2023-01-15T06:34:57;9.50;;;2.00;;
3131;SDS011;62090;52.330;9.104;2023-01-15T06:37:26;21.20;;;2.50;;
3131;SDS011;62090;52.330;9.104;2023-01-15T06:39:56;9.80;;;2.50;;
3131;SDS011;62090;52.330;9.104;2023-01-15T06:42:26;12.80;;;2.50;;
3131;SDS011;62090;52.330;9.104;2023-01-15T06:45:08;10.10;;;3.13;;
3131;SDS011;62090;52.330;9.104;2023-01-15T06:47:54;12.30;;;2.20;;
3131;SDS011;62090;52.330;9.104;2023-01-15T06:50:24;9.00;;;2.33;;
3131;SDS011;62090;52.330;9.104;2023-01-15T06:52:54;9.40;;;2.30;;
3131;SDS011;62090;52.330;9.104;2023-01-15T06:55:24;8.43;;;2.50;;
3131;SDS011;62090;52.330;9.104;2023-01-15T06:57:53;11.43;;;1.90;;
3131;SDS011;62090;52.330;9.104;2023-01-15T07:00:23;7.03;;;2.10;;
3131;SDS011;62090;52.330;9.104;2023-01-15T07:02:58;8.43;;;2.30;;
3131;SDS011;62090;52.330;9.104;2023-01-15T07:05:27;11.93;;;2.30;;
3131;SDS011;62090;52.330;9.104;2023-01-15T07:07:58;9.63;;;2.60;;
3131;SDS011;62090;52.330;9.104;2023-01-15T07:10:28;8.03;;;1.87;;
3131;SDS011;62090;52.330;9.104;2023-01-15T07:12:57;8.30;;;2.30;;
3131;SDS011;62090;52.330;9.104;2023-01-15T07:15:27;8.30;;;2.13;;
3131;SDS011;62090;52.330;9.104;2023-01-15T07:17:59;15.10;;;2.63;;
3131;SDS011;62090;52.330;9.104;2023-01-15T07:20:30;11.50;;;2.00;;
3131;SDS011;62090;52.330;9.104;2023-01-15T07:23:01;7.13;;;1.80;;
3131;SDS011;62090;52.330;9.104;2023-01-15T07:25:31;10.93;;;2.27;;
3131;SDS011;62090;52.330;9.104;2023-01-15T07:28:01;3.60;;;1.60;;
3131;SDS011;62090;52.330;9.104;2023-01-15T07:30:30;6.17;;;1.90;;
3131;SDS011;62090;52.330;9.104;2023-01-15T07:33:03;8.80;;;2.27;;
3131;SDS011;62090;52.330;9.104;2023-01-15T07:35:32;6.60;;;1.90;;
3131;SDS011;62090;52.330;9.104;2023-01-15T07:38:03;12.50;;;2.40;;
3131;SDS011;62090;52.330;9.104;2023-01-15T07:40:33;7.93;;;2.07;;
3131;SDS011;62090;52.330;9.104;2023-01-15T07:43:04;12.37;;;2.30;;
3131;SDS011;62090;52.330;9.104;2023-01-15T07:45:47;10.90;;;2.30;;
3131;SDS011;62090;52.330;9.104;2023-01-15T07:48:32;16.23;;;2.10;;
3131;SDS011;62090;52.330;9.104;2023-01-15T07:51:14;12.70;;;2.17;;
3131;SDS011;62090;52.330;9.104;2023-01-15T07:53:44;15.07;;;3.20;;
3131;SDS011;62090;52.330;9.104;2023-01-15T07:56:13;9.77;;;2.17;;
3131;SDS011;62090;52.330;9.104;2023-01-15T07:58:43;11.27;;;2.50;;
3131;SDS011;62090;52.330;9.104;2023-01-15T08:01:15;9.57;;;2.37;;
3131;SDS011;62090;52.330;9.104;2023-01-15T08:03:48;10.00;;;2.03;;
3131;SDS011;62090;52.330;9.104;2023-01-15T08:06:17;21.67;;;3.43;;
3131;SDS011;62090;52.330;9.104;2023-01-15T08:08:47;14.03;;;4.67;;
3131;SDS011;62090;52.330;9.104;2023-01-15T08:11:17;10.70;;;2.43;;
3131;SDS011;62090;52.330;9.104;2023-01-15T08:14:11;5.43;;;2.07;;
3131;SDS011;62090;52.330;9.104;2023-01-15T08:17:08;13.30;;;2.43;;
3131;SDS011;62090;52.330;9.104;2023-01-15T08:19:40;10.80;;;2.37;;
3131;SDS011;62090;52.330;9.104;2023-01-15T08:22:10;9.47;;;2.60;;
3131;SDS011;62090;52.330;9.104;2023-01-15T08:24:39;10.20;;;2.23;;
3131;SDS011;62090;52.330;9.104;2023-01-15T08:27:09;10.33;;;2.60;;
3131;SDS011;62090;52.330;9.104;2023-01-15T08:29:40;16.93;;;3.47;;
3131;SDS011;62090;52.330;9.104;2023-01-15T08:32:10;10.37;;;2.13;;
3131;SDS011;62090;52.330;9.104;2023-01-15T08:34:42;8.27;;;2.43;;
3131;SDS011;62090;52.330;9.104;2023-01-15T08:37:12;15.00;;;2.70;;
3131;SDS011;62090;52.330;9.104;2023-01-15T08:39:41;11.17;;;2.93;;
3131;SDS011;62090;52.330;9.104;2023-01-15T08:42:11;9.83;;;2.77;;
3131;SDS011;62090;52.330;9.104;2023-01-15T08:44:41;14.97;;;2.20;;
3131;SDS011;62090;52.330;9.104;2023-01-15T08:47:11;13.90;;;2.73;;
3131;SDS011;62090;52.330;9.104;2023-01-15T08:49:44;9.73;;;2.33;;
3131;SDS011;62090;52.330;9.104;2023-01-15T08:52:15;5.43;;;1.80;;
3131;SDS011;62090;52.330;9.104;2023-01-15T08:54:45;14.10;;;3.47;;
3131;SDS011;62090;52.330;9.104;2023-01-15T08:57:14;5.20;;;1.97;;
3131;SDS011;62090;52.330;9.104;2023-01-15T08:59:45;8.90;;;2.77;;
3131;SDS011;62090;52.330;9.104;2023-01-15T09:02:15;9.97;;;2.53;;
3131;SDS011;62090;52.330;9.104;2023-01-15T09:04:47;12.53;;;2.30;;
3131;SDS011;62090;52.330;9.104;2023-01-15T09:07:18;8.43;;;2.17;;
3131;SDS011;62090;52.330;9.104;2023-01-15T09:09:48;10.77;;;2.60;;
3131;SDS011;62090;52.330;9.104;2023-01-15T09:12:18;8.43;;;2.37;;
3131;SDS011;62090;52.330;9.104;2023-01-15T09:14:50;8.70;;;2.37;;
3131;SDS011;62090;52.330;9.104;2023-01-15T09:17:29;5.30;;;1.80;;
3131;SDS011;62090;52.330;9.104;2023-01-15T09:20:08;10.60;;;2.20;;
3131;SDS011;62090;52.330;9.104;2023-01-15T09:22:40;6.97;;;2.23;;
3131;SDS011;62090;52.330;9.104;2023-01-15T09:25:10;9.17;;;2.40;;
3131;SDS011;62090;52.330;9.104;2023-01-15T09:27:39;17.00;;;2.10;;
3131;SDS011;62090;52.330;9.104;2023-01-15T09:30:09;12.00;;;2.70;;
3131;SDS011;62090;52.330;9.104;2023-01-15T09:32:45;11.23;;;2.67;;
3131;SDS011;62090;52.330;9.104;2023-01-15T09:35:18;8.47;;;2.50;;
3131;SDS011;62090;52.330;9.104;2023-01-15T09:37:49;7.70;;;2.10;;
3131;SDS011;62090;52.330;9.104;2023-01-15T09:40:33;8.57;;;1.93;;
3131;SDS011;62090;52.330;9.104;2023-01-15T09:43:14;9.27;;;1.87;;
3131;SDS011;62090;52.330;9.104;2023-01-15T09:45:53;20.50;;;2.83;;
3131;SDS011;62090;52.330;9.104;2023-01-15T09:48:31;8.93;;;2.67;;
3131;SDS011;62090;52.330;9.104;2023-01-15T09:51:15;5.77;;;2.20;;
3131;SDS011;62090;52.330;9.104;2023-01-15T09:53:57;7.80;;;2.03;;
3131;SDS011;62090;52.330;9.104;2023-01-15T09:56:41;9.47;;;1.80;;
3131;SDS011;62090;52.330;9.104;2023-01-15T09:59:15;5.73;;;1.90;;
3131;SDS011;62090;52.330;9.104;2023-01-15T10:01:48;6.90;;;1.50;;
3131;SDS011;62090;52.330;9.104;2023-01-15T10:04:23;9.30;;;2.40;;
3131;SDS011;62090;52.330;9.104;2023-01-15T10:07:07;10.63;;;1.80;;
3131;SDS011;62090;52.330;9.104;2023-01-15T10:09:43;4.90;;;1.40;;
3131;SDS011;62090;52.330;9.104;2023-01-15T10:12:22;13.40;;;2.90;;
3131;SDS011;62090;52.330;9.104;2023-01-15T10:15:09;4.83;;;1.60;;
3131;SDS011;62090;52.330;9.104;2023-01-15T10:17:47;5.43;;;1.43;;
3131;SDS011;62090;52.330;9.104;2023-01-15T10:20:27;8.73;;;2.20;;
3131;SDS011;62090;52.330;9.104;2023-01-15T10:23:19;6.80;;;2.03;;
3131;SDS011;62090;52.330;9.104;2023-01-15T10:26:01;6.77;;;1.70;;
3131;SDS011;62090;52.330;9.104;2023-01-15T10:28:42;10.53;;;1.70;;
3131;SDS011;62090;52.330;9.104;2023-01-15T10:31:21;7.90;;;1.80;;
3131;SDS011;62090;52.330;9.104;2023-01-15T10:33:58;10.20;;;1.90;;
3131;SDS011;62090;52.330;9.104;2023-01-15T10:36:43;7.30;;;2.07;;
3131;SDS011;62090;52.330;9.104;2023-01-15T10:39:24;12.53;;;2.27;;
3131;SDS011;62090;52.330;9.104;2023-01-15T10:42:04;5.37;;;1.83;;
3131;SDS011;62090;52.330;9.104;2023-01-15T10:44:45;6.00;;;1.57;;
3131;SDS011;62090;52.330;9.104;2023-01-15T10:47:21;13.50;;;2.47;;
3131;SDS011;62090;52.330;9.104;2023-01-15T10:49:59;3.83;;;1.70;;
3131;SDS011;62090;52.330;9.104;2023-01-15T10:52:30;5.87;;;1.53;;
3131;SDS011;62090;52.330;9.104;2023-01-15T10:55:09;10.13;;;1.77;;
3131;SDS011;62090;52.330;9.104;2023-01-15T10:57:48;8.50;;;2.00;;
3131;SDS011;62090;52.330;9.104;2023-01-15T11:00:35;5.77;;;1.47;;
3131;SDS011;62090;52.330;9.104;2023-01-15T11:03:09;5.83;;;1.90;;
3131;SDS011;62090;52.330;9.104;2023-01-15T11:05:43;7.50;;;1.70;;
3131;SDS011;62090;52.330;9.104;2023-01-15T11:08:19;7.80;;;2.07;;
3131;SDS011;62090;52.330;9.104;2023-01-15T11:11:21;5.53;;;1.57;;
3131;SDS011;62090;52.330;9.104;2023-01-15T11:14:05;8.50;;;1.60;;
3131;SDS011;62090;52.330;9.104;2023-01-15T11:16:48;4.70;;;1.50;;
3131;SDS011;62090;52.330;9.104;2023-01-15T11:19:33;5.60;;;1.37;;
3131;SDS011;62090;52.330;9.104;2023-01-15T11:22:06;5.67;;;2.63;;
3131;SDS011;62090;52.330;9.104;2023-01-15T11:24:44;6.57;;;1.90;;
3131;SDS011;62090;52.330;9.104;2023-01-15T11:27:19;4.03;;;1.60;;
3131;SDS011;62090;52.330;9.104;2023-01-15T11:29:53;3.57;;;1.50;;
3131;SDS011;62090;52.330;9.104;2023-01-15T11:32:27;4.80;;;1.27;;
3131;SDS011;62090;52.330;9.104;2023-01-15T11:35:00;4.90;;;1.53;;
3131;SDS011;62090;52.330;9.104;2023-01-15T11:37:31;7.17;;;1.77;;
3131;SDS011;62090;52.330;9.104;2023-01-15T11:40:00;3.53;;;1.20;;
3131;SDS011;62090;52.330;9.104;2023-01-15T11:42:38;3.73;;;1.27;;
3131;SDS011;62090;52.330;9.104;2023-01-15T11:45:27;5.10;;;1.33;;
3131;SDS011;62090;52.330;9.104;2023-01-15T11:48:12;6.30;;;1.53;;
3131;SDS011;62090;52.330;9.104;2023-01-15T11:50:59;4.70;;;1.27;;
3131;SDS011;62090;52.330;9.104;2023-01-15T11:53:37;7.13;;;1.50;;
3131;SDS011;62090;52.330;9.104;2023-01-15T11:56:12;3.57;;;1.30;;
3131;SDS011;62090;52.330;9.104;2023-01-15T11:58:49;7.03;;;1.30;;
3131;SDS011;62090;52.330;9.104;2023-01-15T12:01:22;8.53;;;1.27;;
3131;SDS011;62090;52.330;9.104;2023-01-15T12:03:55;7.27;;;1.47;;
3131;SDS011;62090;52.330;9.104;2023-01-15T12:06:26;8.43;;;1.60;;
3131;SDS011;62090;52.330;9.104;2023-01-15T12:09:00;7.53;;;1.90;;
3131;SDS011;62090;52.330;9.104;2023-01-15T12:11:47;5.93;;;1.23;;
3131;SDS011;62090;52.330;9.104;2023-01-15T12:14:30;8.17;;;1.43;;
3131;SDS011;62090;52.330;9.104;2023-01-15T12:17:16;12.43;;;2.00;;
3131;SDS011;62090;52.330;9.104;2023-01-15T12:19:59;6.70;;;1.23;;
3131;SDS011;62090;52.330;9.104;2023-01-15T12:22:45;4.90;;;1.20;;
3131;SDS011;62090;52.330;9.104;2023-01-15T12:25:27;2.93;;;1.10;;
3131;SDS011;62090;52.330;9.104;2023-01-15T12:28:09;8.73;;;1.60;;
3131;SDS011;62090;52.330;9.104;2023-01-15T12:30:47;7.50;;;1.40;;
3131;SDS011;62090;52.330;9.104;2023-01-15T12:33:27;11.00;;;2.33;;
3131;SDS011;62090;52.330;9.104;2023-01-15T12:36:06;10.87;;;2.20;;
3131;SDS011;62090;52.330;9.104;2023-01-15T12:38:43;6.10;;;2.13;;
3131;SDS011;62090;52.330;9.104;2023-01-15T12:41:20;7.43;;;2.03;;
3131;SDS011;62090;52.330;9.104;2023-01-15T12:44:15;4.10;;;1.20;;
3131;SDS011;62090;52.330;9.104;2023-01-15T12:47:08;3.00;;;1.43;;
3131;SDS011;62090;52.330;9.104;2023-01-15T12:49:43;5.67;;;1.70;;
3131;SDS011;62090;52.330;9.104;2023-01-15T12:52:18;14.20;;;1.83;;
3131;SDS011;62090;52.330;9.104;2023-01-15T12:54:54;8.77;;;1.70;;
3131;SDS011;62090;52.330;9.104;2023-01-15T12:57:30;6.40;;;1.77;;
3131;SDS011;62090;52.330;9.104;2023-01-15T13:00:04;10.23;;;2.10;;
3131;SDS011;62090;52.330;9.104;2023-01-15T13:02:49;8.53;;;1.70;;
3131;SDS011;62090;52.330;9.104;2023-01-15T13:05:28;6.07;;;2.00;;
3131;SDS011;62090;52.330;9.104;2023-01-15T13:08:04;5.03;;;1.60;;
3131;SDS011;62090;52.330;9.104;2023-01-15T13:10:42;7.00;;;1.43;;
3131;SDS011;62090;52.330;9.104;2023-01-15T13:13:14;7.60;;;1.53;;
3131;SDS011;62090;52.330;9.104;2023-01-15T13:15:52;8.30;;;1.87;;
3131;SDS011;62090;52.330;9.104;2023-01-15T13:18:43;17.83;;;1.90;;
3131;SDS011;62090;52.330;9.104;2023-01-15T13:21:21;15.77;;;1.80;;
3131;SDS011;62090;52.330;9.104;2023-01-15T13:23:56;8.20;;;1.67;;
3131;SDS011;62090;52.330;9.104;2023-01-15T13:27:01;4.43;;;1.17;;
3131;SDS011;62090;52.330;9.104;2023-01-15T13:29:42;4.97;;;1.87;;
3131;SDS011;62090;52.330;9.104;2023-01-15T13:32:19;5.00;;;1.90;;
3131;SDS011;62090;52.330;9.104;2023-01-15T13:34:55;7.90;;;1.80;;
3131;SDS011;62090;52.330;9.104;2023-01-15T13:37:30;9.40;;;1.80;;
3131;SDS011;62090;52.330;9.104;2023-01-15T13:40:08;5.17;;;1.60;;
3131;SDS011;62090;52.330;9.104;2023-01-15T13:42:44;6.03;;;1.67;;
3131;SDS011;62090;52.330;9.104;2023-01-15T13:45:28;5.57;;;1.53;;
3131;SDS011;62090;52.330;9.104;2023-01-15T13:48:05;10.20;;;2.07;;
3131;SDS011;62090;52.330;9.104;2023-01-15T13:50:40;4.70;;;1.43;;
3131;SDS011;62090;52.330;9.104;2023-01-15T13:53:14;8.77;;;1.80;;
3131;SDS011;62090;52.330;9.104;2023-01-15T13:55:51;5.07;;;1.30;;
3131;SDS011;62090;52.330;9.104;2023-01-15T13:58:24;9.20;;;2.27;;
3131;SDS011;62090;52.330;9.104;2023-01-15T14:01:04;14.80;;;1.73;;
3131;SDS011;62090;52.330;9.104;2023-01-15T14:03:54;6.93;;;1.43;;
3131;SDS011;62090;52.330;9.104;2023-01-15T14:06:40;9.50;;;2.27;;
3131;SDS011;62090;52.330;9.104;2023-01-15T14:09:12;5.53;;;1.50;;
3131;SDS011;62090;52.330;9.104;2023-01-15T14:11:46;4.20;;;1.30;;
3131;SDS011;62090;52.330;9.104;2023-01-15T14:14:32;9.53;;;2.07;;
3131;SDS011;62090;52.330;9.104;2023-01-15T14:17:27;5.87;;;1.33;;
3131;SDS011;62090;52.330;9.104;2023-01-15T14:20:14;4.50;;;1.63;;
3131;SDS011;62090;52.330;9.104;2023-01-15T14:23:04;6.63;;;1.90;;
3131;SDS011;62090;52.330;9.104;2023-01-15T14:25:49;7.57;;;2.13;;
3131;SDS011;62090;52.330;9.104;2023-01-15T14:28:35;10.10;;;2.10;;
3131;SDS011;62090;52.330;9.104;2023-01-15T14:31:22;11.70;;;1.93;;
3131;SDS011;62090;52.330;9.104;2023-01-15T14:34:12;5.43;;;1.50;;
3131;SDS011;62090;52.330;9.104;2023-01-15T14:36:49;9.17;;;2.90;;
3131;SDS011;62090;52.330;9.104;2023-01-15T14:42:16;13.40;;;1.60;;
3131;SDS011;62090;52.330;9.104;2023-01-15T14:45:07;8.00;;;2.03;;
3131;SDS011;62090;52.330;9.104;2023-01-15T14:47:50;6.83;;;2.60;;
3131;SDS011;62090;52.330;9.104;2023-01-15T14:50:28;7.50;;;2.33;;
3131;SDS011;62090;52.330;9.104;2023-01-15T14:53:05;4.93;;;1.20;;
3131;SDS011;62090;52.330;9.104;2023-01-15T14:55:51;5.30;;;1.57;;
3131;SDS011;62090;52.330;9.104;2023-01-15T14:58:29;5.70;;;1.67;;
3131;SDS011;62090;52.330;9.104;2023-01-15T15:01:13;10.67;;;2.20;;
3131;SDS011;62090;52.330;9.104;2023-01-15T15:03:51;7.70;;;1.17;;
3131;SDS011;62090;52.330;9.104;2023-01-15T15:06:24;7.60;;;1.63;;
3131;SDS011;62090;52.330;9.104;2023-01-15T15:08:58;5.07;;;1.63;;
3131;SDS011;62090;52.330;9.104;2023-01-15T15:11:37;8.70;;;1.47;;
3131;SDS011;62090;52.330;9.104;2023-01-15T15:14:24;10.30;;;1.90;;
3131;SDS011;62090;52.330;9.104;2023-01-15T15:16:56;5.37;;;1.60;;
3131;SDS011;62090;52.330;9.104;2023-01-15T15:19:29;5.33;;;1.50;;
3131;SDS011;62090;52.330;9.104;2023-01-15T15:22:05;5.73;;;1.60;;
3131;SDS011;62090;52.330;9.104;2023-01-15T15:24:36;10.03;;;2.63;;
3131;SDS011;62090;52.330;9.104;2023-01-15T15:27:17;7.53;;;2.00;;
3131;SDS011;62090;52.330;9.104;2023-01-15T15:29:48;13.57;;;3.53;;
3131;SDS011;62090;52.330;9.104;2023-01-15T15:32:19;8.27;;;2.50;;
3131;SDS011;62090;52.330;9.104;2023-01-15T15:34:51;7.70;;;1.20;;
3131;SDS011;62090;52.330;9.104;2023-01-15T15:37:23;6.13;;;1.50;;
3131;SDS011;62090;52.330;9.104;2023-01-15T15:39:57;5.60;;;1.40;;
3131;SDS011;62090;52.330;9.104;2023-01-15T15:42:34;6.57;;;1.57;;
3131;SDS011;62090;52.330;9.104;2023-01-15T15:45:21;6.80;;;1.53;;
3131;SDS011;62090;52.330;9.104;2023-01-15T15:48:10;10.30;;;2.40;;
3131;SDS011;62090;52.330;9.104;2023-01-15T15:50:53;4.43;;;1.40;;